createdAt,value
2022-08-21T00:01:46.445Z,17.10
2022-08-21T00:04:22.306Z,17.10
2022-08-21T00:06:51.028Z,17.00
2022-08-21T00:09:19.598Z,17.00
2022-08-21T00:11:48.650Z,16.90
2022-08-21T00:14:17.388Z,16.90
2022-08-21T00:16:45.594Z,16.80
2022-08-21T00:19:14.927Z,16.70
2022-08-21T00:21:44.347Z,16.70
2022-08-21T00:24:12.777Z,16.70
2022-08-21T00:26:40.684Z,16.70
2022-08-21T00:29:08.715Z,16.60
2022-08-21T00:31:36.651Z,16.60
2022-08-21T00:34:05.163Z,16.50
2022-08-21T00:36:34.846Z,16.50
2022-08-21T00:39:03.476Z,16.50
2022-08-21T00:41:37.223Z,16.40
2022-08-21T00:44:07.359Z,16.50
2022-08-21T00:46:35.710Z,16.40
2022-08-21T00:49:04.388Z,16.50
2022-08-21T00:51:39.603Z,16.40
2022-08-21T00:54:11.637Z,16.40
2022-08-21T00:56:49.431Z,16.40
2022-08-21T00:59:18.515Z,16.40
2022-08-21T01:01:46.933Z,16.30
2022-08-21T01:04:16.656Z,16.20
2022-08-21T01:06:46.300Z,16.20
2022-08-21T01:09:15.210Z,16.10
2022-08-21T01:11:44.319Z,16.20
2022-08-21T01:14:13.094Z,16.10
2022-08-21T01:16:41.903Z,16.10
2022-08-21T01:19:10.883Z,16.00
2022-08-21T01:21:41.912Z,16.00
2022-08-21T01:24:13.027Z,16.00
2022-08-21T01:26:42.356Z,15.90
2022-08-21T01:29:16.284Z,15.90
2022-08-21T01:31:44.579Z,15.90
2022-08-21T01:34:13.093Z,15.90
2022-08-21T01:36:42.466Z,15.90
2022-08-21T01:39:11.066Z,15.90
2022-08-21T01:41:39.026Z,15.80
2022-08-21T01:44:07.097Z,15.80
2022-08-21T01:46:35.016Z,15.80
2022-08-21T01:49:03.120Z,15.80
2022-08-21T01:51:31.017Z,15.80
2022-08-21T01:54:00.574Z,15.70
2022-08-21T01:56:28.800Z,15.70
2022-08-21T01:58:57.373Z,15.70
2022-08-21T02:01:25.455Z,15.70
2022-08-21T02:03:53.375Z,15.60
2022-08-21T02:06:21.389Z,15.70
2022-08-21T02:08:51.433Z,15.70
2022-08-21T02:11:21.344Z,15.60
2022-08-21T02:13:49.337Z,15.60
2022-08-21T02:16:19.492Z,15.50
2022-08-21T02:18:48.062Z,15.50
2022-08-21T02:21:16.166Z,15.50
2022-08-21T02:23:44.149Z,15.40
2022-08-21T02:26:12.933Z,15.40
2022-08-21T02:28:43.220Z,15.40
2022-08-21T02:31:11.777Z,15.50
2022-08-21T02:33:40.331Z,15.50
2022-08-21T02:36:09.622Z,15.50
2022-08-21T02:38:39.698Z,15.40
2022-08-21T02:41:09.532Z,15.50
2022-08-21T02:43:37.645Z,15.40
2022-08-21T02:46:08.561Z,15.50
2022-08-21T02:48:37.782Z,15.40
2022-08-21T02:51:08.680Z,15.40
2022-08-21T02:53:37.100Z,15.40
2022-08-21T02:56:08.238Z,15.40
2022-08-21T02:58:39.499Z,15.40
2022-08-21T03:01:10.558Z,15.40
2022-08-21T03:03:40.173Z,15.30
2022-08-21T03:06:10.086Z,15.30
2022-08-21T03:08:39.110Z,15.30
2022-08-21T03:11:07.868Z,15.20
2022-08-21T03:13:38.558Z,15.30
2022-08-21T03:16:09.790Z,15.20
2022-08-21T03:18:40.102Z,15.20
2022-08-21T03:21:08.334Z,15.10
2022-08-21T03:23:36.675Z,15.00
2022-08-21T03:26:05.938Z,15.10
2022-08-21T03:28:35.907Z,15.10
2022-08-21T03:31:03.808Z,15.10
2022-08-21T03:33:31.728Z,15.10
2022-08-21T03:36:03.811Z,15.10
2022-08-21T03:38:34.283Z,15.10
2022-08-21T03:41:03.706Z,15.10
2022-08-21T03:43:32.531Z,15.10
2022-08-21T03:46:01.902Z,15.00
2022-08-21T03:48:29.974Z,15.00
2022-08-21T03:50:57.974Z,15.00
2022-08-21T03:53:27.700Z,15.00
2022-08-21T03:55:55.994Z,15.00
2022-08-21T03:58:26.420Z,15.00
2022-08-21T04:00:58.492Z,14.90
2022-08-21T04:03:27.561Z,14.90
2022-08-21T04:05:55.514Z,14.90
2022-08-21T04:08:23.646Z,14.90
2022-08-21T04:10:56.353Z,14.80
2022-08-21T04:13:24.781Z,14.70
2022-08-21T04:15:53.024Z,14.80
2022-08-21T04:18:20.969Z,14.80
2022-08-21T04:20:51.858Z,14.80
2022-08-21T04:23:24.385Z,14.80
2022-08-21T04:25:55.372Z,14.80
2022-08-21T04:28:23.655Z,14.80
2022-08-21T04:30:57.793Z,14.70
2022-08-21T04:33:26.265Z,14.80
2022-08-21T04:35:54.303Z,14.70
2022-08-21T04:38:22.297Z,14.70
2022-08-21T04:40:50.871Z,14.70
2022-08-21T04:43:22.377Z,14.70
2022-08-21T04:45:52.303Z,14.80
2022-08-21T04:48:25.044Z,14.70
2022-08-21T04:50:57.259Z,14.80
2022-08-21T04:53:32.165Z,14.70
2022-08-21T04:56:06.355Z,14.70
2022-08-21T04:58:36.812Z,14.80
2022-08-21T05:01:08.911Z,14.90
2022-08-21T05:03:39.482Z,15.00
2022-08-21T05:06:11.327Z,15.20
2022-08-21T05:08:39.814Z,15.40
2022-08-21T05:11:08.687Z,15.70
2022-08-21T05:13:38.240Z,16.60
2022-08-21T05:16:06.516Z,17.20
2022-08-21T05:18:34.374Z,17.60
2022-08-21T05:21:02.368Z,17.90
2022-08-21T05:23:30.331Z,17.80
2022-08-21T05:25:58.341Z,18.30
2022-08-21T05:28:26.896Z,18.90
2022-08-21T05:30:56.454Z,18.90
2022-08-21T05:33:24.429Z,18.90
2022-08-21T05:35:53.593Z,18.50
2022-08-21T05:38:21.732Z,18.40
2022-08-21T05:40:49.707Z,18.40
2022-08-21T05:43:17.915Z,18.40
2022-08-21T05:45:45.920Z,18.50
2022-08-21T05:48:17.886Z,18.70
2022-08-21T05:50:47.151Z,18.70
2022-08-21T05:53:16.458Z,18.70
2022-08-21T05:55:46.440Z,19.70
2022-08-21T05:58:15.601Z,20.80
2022-08-21T06:00:43.945Z,21.90
2022-08-21T06:03:20.229Z,23.20
2022-08-21T06:05:48.979Z,24.20
2022-08-21T06:08:17.296Z,24.80
2022-08-21T06:10:45.510Z,25.00
2022-08-21T06:13:13.751Z,25.60
2022-08-21T06:15:42.057Z,25.70
2022-08-21T06:18:10.574Z,26.80
2022-08-21T06:20:40.579Z,27.20
2022-08-21T06:23:08.908Z,27.70
2022-08-21T06:25:37.284Z,28.40
2022-08-21T06:28:06.706Z,28.50
2022-08-21T06:30:35.178Z,28.50
2022-08-21T06:33:03.891Z,28.90
2022-08-21T06:35:32.225Z,29.50
2022-08-21T06:38:01.500Z,29.80
2022-08-21T06:40:30.728Z,30.30
2022-08-21T06:43:08.121Z,30.10
2022-08-21T06:45:35.921Z,30.60
2022-08-21T06:48:04.265Z,30.90
2022-08-21T06:50:32.370Z,31.50
2022-08-21T06:53:03.362Z,30.80
2022-08-21T06:55:31.644Z,30.20
2022-08-21T06:57:59.583Z,29.80
2022-08-21T07:00:28.073Z,29.90
2022-08-21T07:02:55.973Z,30.10
2022-08-21T07:05:24.250Z,30.60
2022-08-21T07:07:52.185Z,31.40
2022-08-21T07:10:22.275Z,31.40
2022-08-21T07:12:52.563Z,31.50
2022-08-21T07:15:28.881Z,31.40
2022-08-21T07:17:58.975Z,30.80
2022-08-21T07:20:27.331Z,30.90
2022-08-21T07:22:55.811Z,31.70
2022-08-21T07:25:25.248Z,32.30
2022-08-21T07:27:53.368Z,32.30
2022-08-21T07:30:21.368Z,32.40
2022-08-21T07:32:50.788Z,32.80
2022-08-21T07:35:19.883Z,32.70
2022-08-21T07:37:48.299Z,33.70
2022-08-21T07:40:18.012Z,33.90
2022-08-21T07:42:50.999Z,33.70
2022-08-21T07:45:20.230Z,34.30
2022-08-21T07:47:48.221Z,33.40
2022-08-21T07:50:17.697Z,32.90
2022-08-21T07:52:46.338Z,33.30
2022-08-21T07:55:16.717Z,33.20
2022-08-21T07:57:45.729Z,33.30
2022-08-21T08:00:18.453Z,33.90
2022-08-21T08:02:50.305Z,33.90
2022-08-21T08:05:21.158Z,34.50
2022-08-21T08:07:49.366Z,34.90
2022-08-21T08:10:18.768Z,35.50
2022-08-21T08:12:47.654Z,36.50
2022-08-21T08:15:19.381Z,36.80
2022-08-21T08:17:47.774Z,36.50
2022-08-21T08:20:18.081Z,35.60
2022-08-21T08:22:50.041Z,35.80
2022-08-21T08:25:20.817Z,36.00
2022-08-21T08:27:48.923Z,36.70
2022-08-21T08:30:20.772Z,37.10
2022-08-21T08:32:49.029Z,37.00
2022-08-21T08:35:17.723Z,36.40
2022-08-21T08:37:47.908Z,36.40
2022-08-21T08:40:24.699Z,35.70
2022-08-21T08:42:52.812Z,35.70
2022-08-21T08:45:24.887Z,34.90
2022-08-21T08:47:59.080Z,34.80
2022-08-21T08:50:35.097Z,35.50
2022-08-21T08:53:07.146Z,36.00
2022-08-21T08:55:37.217Z,36.10
2022-08-21T08:58:05.696Z,36.00
2022-08-21T09:00:35.712Z,35.70
2022-08-21T09:03:05.202Z,36.40
2022-08-21T09:05:42.338Z,37.30
2022-08-21T09:08:27.404Z,36.30
2022-08-21T09:11:02.598Z,36.20
2022-08-21T09:13:45.371Z,37.00
2022-08-21T09:16:20.565Z,36.20
2022-08-21T09:19:00.409Z,37.30
2022-08-21T09:21:39.997Z,37.30
2022-08-21T09:24:23.502Z,34.70
2022-08-21T09:26:58.776Z,34.30
2022-08-21T09:29:32.010Z,35.60
2022-08-21T09:32:01.329Z,36.20
2022-08-21T09:34:32.182Z,36.80
2022-08-21T09:37:00.822Z,37.10
2022-08-21T09:39:30.785Z,36.70
2022-08-21T09:42:00.015Z,36.80
2022-08-21T09:44:30.132Z,37.30
2022-08-21T09:46:58.393Z,38.50
2022-08-21T09:49:32.670Z,39.40
2022-08-21T09:52:01.675Z,39.60
2022-08-21T09:54:33.403Z,39.00
2022-08-21T09:57:23.978Z,38.20
2022-08-21T09:59:52.138Z,35.80
2022-08-21T10:02:29.069Z,34.90
2022-08-21T10:05:01.774Z,34.80
2022-08-21T10:07:32.186Z,35.90
2022-08-21T10:10:02.318Z,37.10
2022-08-21T10:12:38.706Z,38.10
2022-08-21T10:15:15.608Z,39.20
2022-08-21T10:17:51.852Z,39.70
2022-08-21T10:20:27.241Z,38.00
2022-08-21T10:23:09.461Z,35.60
2022-08-21T10:25:50.514Z,33.70
2022-08-21T10:28:32.874Z,33.20
2022-08-21T10:31:09.904Z,32.50
2022-08-21T10:33:46.606Z,30.80
2022-08-21T10:36:21.245Z,29.60
2022-08-21T10:39:25.994Z,28.90
2022-08-21T10:42:08.075Z,28.60
2022-08-21T10:44:43.902Z,28.60
2022-08-21T10:47:20.870Z,29.20
2022-08-21T10:49:56.817Z,32.90
2022-08-21T10:52:44.184Z,35.20
2022-08-21T10:55:16.116Z,36.40
2022-08-21T10:57:49.645Z,37.50
2022-08-21T11:00:20.698Z,37.90
2022-08-21T11:02:54.667Z,35.90
2022-08-21T11:05:28.748Z,33.60
2022-08-21T11:08:04.366Z,31.10
2022-08-21T11:10:40.848Z,29.60
2022-08-21T11:13:33.873Z,28.40
2022-08-21T11:16:07.497Z,27.70
2022-08-21T11:18:39.586Z,26.80
2022-08-21T11:21:32.863Z,26.10
2022-08-21T11:24:08.787Z,25.90
2022-08-21T11:26:40.915Z,26.10
2022-08-21T11:29:15.531Z,29.30
2022-08-21T11:31:57.811Z,33.00
2022-08-21T11:34:38.491Z,32.40
2022-08-21T11:37:12.937Z,32.20
2022-08-21T11:39:51.201Z,32.50
2022-08-21T11:42:27.241Z,31.60
2022-08-21T11:45:03.842Z,33.80
2022-08-21T11:47:42.016Z,36.20
2022-08-21T11:50:25.636Z,37.70
2022-08-21T11:53:06.803Z,36.90
2022-08-21T11:55:43.283Z,33.10
2022-08-21T11:58:17.496Z,30.80
2022-08-21T12:00:49.766Z,29.10
2022-08-21T12:03:24.687Z,28.50
2022-08-21T12:05:56.564Z,28.10
2022-08-21T12:08:33.987Z,27.80
2022-08-21T12:11:07.141Z,27.90
2022-08-21T12:13:42.383Z,28.00
2022-08-21T12:16:13.183Z,28.10
2022-08-21T12:18:43.090Z,28.40
2022-08-21T12:21:23.898Z,28.80
2022-08-21T12:24:03.785Z,28.90
2022-08-21T12:26:35.819Z,28.80
2022-08-21T12:29:12.590Z,28.80
2022-08-21T12:31:54.956Z,29.30
2022-08-21T12:34:26.608Z,30.00
2022-08-21T12:36:58.723Z,30.00
2022-08-21T12:39:29.083Z,29.80
2022-08-21T12:42:02.605Z,29.50
2022-08-21T12:44:36.625Z,28.90
2022-08-21T12:47:07.737Z,28.30
2022-08-21T12:49:38.952Z,28.60
2022-08-21T12:52:16.071Z,28.60
2022-08-21T12:54:45.837Z,28.40
2022-08-21T12:57:23.701Z,28.00
2022-08-21T12:59:56.734Z,27.80
2022-08-21T13:02:25.862Z,28.10
2022-08-21T13:04:56.255Z,28.30
2022-08-21T13:07:28.728Z,28.10
2022-08-21T13:10:00.038Z,28.10
2022-08-21T13:12:32.468Z,27.80
2022-08-21T13:15:03.211Z,27.10
2022-08-21T13:17:37.262Z,26.50
2022-08-21T13:20:10.061Z,26.00
2022-08-21T13:22:44.737Z,26.30
2022-08-21T13:25:14.554Z,26.50
2022-08-21T13:27:44.785Z,26.40
2022-08-21T13:30:15.509Z,26.30
2022-08-21T13:32:46.230Z,26.50
2022-08-21T13:35:18.264Z,26.70
2022-08-21T13:37:48.250Z,26.90
2022-08-21T13:40:19.630Z,26.90
2022-08-21T13:42:50.317Z,27.00
2022-08-21T13:45:24.212Z,27.00
2022-08-21T13:47:53.379Z,26.70
2022-08-21T13:50:24.010Z,26.60
2022-08-21T13:52:59.813Z,26.60
2022-08-21T13:55:37.066Z,26.50
2022-08-21T13:58:08.038Z,26.20
2022-08-21T14:00:39.954Z,25.80
2022-08-21T14:03:11.244Z,25.30
2022-08-21T14:05:48.382Z,25.60
2022-08-21T14:08:30.440Z,25.50
2022-08-21T14:10:59.045Z,25.60
2022-08-21T14:13:40.227Z,25.80
2022-08-21T14:16:15.713Z,25.90
2022-08-21T14:18:53.623Z,26.20
2022-08-21T14:21:33.383Z,26.10
2022-08-21T14:24:05.106Z,26.20
2022-08-21T14:26:34.637Z,26.60
2022-08-21T14:29:10.461Z,26.60
2022-08-21T14:31:41.864Z,26.70
2022-08-21T14:34:19.491Z,26.40
2022-08-21T14:36:49.126Z,26.40
2022-08-21T14:39:17.247Z,26.60
2022-08-21T14:41:46.942Z,26.60
2022-08-21T14:44:17.009Z,26.40
2022-08-21T14:46:55.813Z,26.10
2022-08-21T14:49:29.273Z,25.60
2022-08-21T14:51:59.130Z,25.30
2022-08-21T14:54:31.748Z,25.20
2022-08-21T14:57:02.440Z,24.90
2022-08-21T14:59:33.594Z,24.90
2022-08-21T15:02:02.065Z,25.20
2022-08-21T15:04:29.976Z,25.70
2022-08-21T15:06:58.063Z,25.90
2022-08-21T15:09:25.968Z,25.70
2022-08-21T15:11:55.088Z,25.40
2022-08-21T15:14:24.948Z,25.30
2022-08-21T15:16:54.745Z,25.20
2022-08-21T15:19:22.860Z,25.10
2022-08-21T15:21:51.154Z,24.90
2022-08-21T15:24:19.130Z,25.00
2022-08-21T15:26:47.881Z,25.10
2022-08-21T15:29:22.670Z,25.10
2022-08-21T15:31:58.482Z,24.90
2022-08-21T15:34:28.149Z,24.70
2022-08-21T15:36:57.117Z,24.60
2022-08-21T15:39:30.036Z,24.70
2022-08-21T15:41:58.209Z,24.70
2022-08-21T15:44:27.800Z,24.70
2022-08-21T15:46:57.779Z,24.60
2022-08-21T15:49:25.686Z,24.40
2022-08-21T15:51:53.685Z,24.50
2022-08-21T15:54:21.558Z,24.30
2022-08-21T15:56:51.503Z,24.60
2022-08-21T15:59:22.845Z,24.70
2022-08-21T16:01:51.919Z,24.60
2022-08-21T16:04:25.687Z,24.60
2022-08-21T16:06:59.211Z,24.70
2022-08-21T16:09:30.000Z,24.70
2022-08-21T16:11:58.092Z,24.90
2022-08-21T16:14:26.087Z,24.90
2022-08-21T16:16:54.794Z,24.80
2022-08-21T16:19:24.454Z,24.80
2022-08-21T16:21:52.352Z,24.70
2022-08-21T16:24:20.387Z,24.70
2022-08-21T16:26:57.563Z,24.70
2022-08-21T16:29:30.897Z,24.60
2022-08-21T16:31:59.042Z,24.60
2022-08-21T16:34:29.530Z,24.60
2022-08-21T16:36:57.509Z,24.60
2022-08-21T16:39:26.708Z,24.30
2022-08-21T16:41:55.360Z,24.30
2022-08-21T16:44:23.917Z,24.20
2022-08-21T16:46:51.894Z,24.30
2022-08-21T16:49:20.878Z,24.20
2022-08-21T16:51:50.132Z,24.20
2022-08-21T16:54:18.739Z,24.00
2022-08-21T16:56:48.055Z,24.00
2022-08-21T16:59:17.628Z,23.90
2022-08-21T17:01:46.525Z,23.80
2022-08-21T17:04:14.537Z,23.80
2022-08-21T17:06:43.938Z,23.80
2022-08-21T17:09:13.238Z,23.80
2022-08-21T17:11:44.980Z,23.70
2022-08-21T17:14:16.150Z,23.70
2022-08-21T17:16:47.920Z,23.60
2022-08-21T17:19:16.112Z,23.50
2022-08-21T17:21:44.144Z,23.40
2022-08-21T17:24:15.542Z,23.20
2022-08-21T17:26:44.073Z,23.20
2022-08-21T17:29:14.408Z,23.10
2022-08-21T17:31:44.900Z,23.00
2022-08-21T17:34:13.753Z,22.90
2022-08-21T17:36:41.683Z,22.80
2022-08-21T17:39:10.860Z,22.70
2022-08-21T17:41:41.425Z,22.60
2022-08-21T17:44:16.535Z,22.60
2022-08-21T17:46:46.356Z,22.60
2022-08-21T17:49:15.913Z,22.50
2022-08-21T17:51:43.947Z,22.40
2022-08-21T17:54:11.911Z,22.40
2022-08-21T17:56:43.427Z,22.30
2022-08-21T17:59:12.094Z,22.30
2022-08-21T18:01:43.542Z,22.20
2022-08-21T18:04:12.272Z,22.10
2022-08-21T18:06:40.665Z,22.10
2022-08-21T18:09:09.523Z,22.00
2022-08-21T18:11:38.622Z,21.80
2022-08-21T18:14:08.290Z,21.70
2022-08-21T18:16:38.137Z,21.50
2022-08-21T18:19:09.466Z,21.30
2022-08-21T18:21:37.647Z,21.10
2022-08-21T18:24:06.194Z,21.00
2022-08-21T18:26:37.412Z,20.90
2022-08-21T18:29:10.950Z,20.70
2022-08-21T18:31:40.333Z,20.60
2022-08-21T18:34:19.593Z,20.40
2022-08-21T18:36:48.325Z,20.30
2022-08-21T18:39:35.364Z,20.10
2022-08-21T18:42:06.584Z,19.90
2022-08-21T18:44:35.950Z,19.80
2022-08-21T18:47:07.420Z,19.70
2022-08-21T18:49:35.405Z,19.50
2022-08-21T18:52:04.028Z,19.40
2022-08-21T18:54:32.026Z,19.30
2022-08-21T18:57:00.193Z,19.20
2022-08-21T18:59:35.639Z,19.20
2022-08-21T19:02:07.943Z,19.00
2022-08-21T19:04:44.297Z,18.90
2022-08-21T19:07:25.353Z,18.80
2022-08-21T19:12:44.311Z,18.80
2022-08-21T19:15:16.433Z,18.60
2022-08-21T19:17:47.063Z,18.50
2022-08-21T19:20:25.595Z,18.50
2022-08-21T19:22:55.336Z,18.30
2022-08-21T19:28:17.081Z,18.00
2022-08-21T19:30:56.168Z,18.00
2022-08-21T19:33:29.415Z,18.00
2022-08-21T19:35:57.769Z,17.90
2022-08-21T19:38:26.340Z,17.80
2022-08-21T19:40:55.607Z,17.70
2022-08-21T19:43:24.193Z,17.50
2022-08-21T19:45:56.901Z,17.50
2022-08-21T19:48:26.217Z,17.40
2022-08-21T19:50:54.264Z,17.40
2022-08-21T19:53:22.242Z,17.30
2022-08-21T19:55:50.920Z,17.20
2022-08-21T19:58:29.274Z,17.20
2022-08-21T20:00:58.516Z,17.20
2022-08-21T20:03:26.404Z,17.20
2022-08-21T20:05:54.393Z,17.20
2022-08-21T20:08:22.435Z,17.10
2022-08-21T20:10:58.100Z,17.00
2022-08-21T20:13:26.669Z,17.00
2022-08-21T20:15:55.345Z,17.00
2022-08-21T20:18:26.929Z,17.00
2022-08-21T20:20:55.673Z,17.00
2022-08-21T20:23:30.369Z,17.00
2022-08-21T20:26:01.663Z,17.10
2022-08-21T20:28:30.409Z,17.10
2022-08-21T20:30:58.566Z,16.90
2022-08-21T20:33:27.854Z,16.90
2022-08-21T20:35:55.809Z,16.80
2022-08-21T20:38:24.366Z,16.70
2022-08-21T20:40:54.583Z,16.70
2022-08-21T20:43:23.346Z,16.80
2022-08-21T20:45:51.899Z,16.70
2022-08-21T20:48:26.748Z,16.70
2022-08-21T20:51:01.655Z,16.60
2022-08-21T20:53:43.805Z,16.40
2022-08-21T20:56:18.025Z,16.30
2022-08-21T20:58:53.173Z,16.30
2022-08-21T21:01:22.395Z,16.30
2022-08-21T21:03:56.860Z,16.40
2022-08-21T21:06:29.205Z,16.40
2022-08-21T21:09:02.282Z,16.40
2022-08-21T21:11:34.873Z,16.40
2022-08-21T21:14:11.558Z,16.30
2022-08-21T21:16:45.971Z,16.30
2022-08-21T21:19:25.825Z,16.20
2022-08-21T21:22:01.229Z,16.10
2022-08-21T21:24:37.802Z,16.10
2022-08-21T21:27:12.340Z,16.10
2022-08-21T21:29:45.003Z,16.10
2022-08-21T21:32:18.211Z,16.10
2022-08-21T21:34:51.051Z,16.10
2022-08-21T21:37:25.834Z,16.00
2022-08-21T21:40:05.279Z,16.00
2022-08-21T21:42:44.329Z,15.90
2022-08-21T21:45:24.355Z,15.90
2022-08-21T21:48:06.961Z,15.90
2022-08-21T21:50:53.272Z,15.80
2022-08-21T21:53:37.969Z,15.70
2022-08-21T21:56:21.085Z,15.70
2022-08-21T21:59:08.269Z,15.70
2022-08-21T22:01:42.108Z,15.80
2022-08-21T22:04:16.921Z,15.70
2022-08-21T22:06:53.133Z,15.60
2022-08-21T22:09:37.008Z,15.60
2022-08-21T22:12:15.607Z,15.50
2022-08-21T22:14:44.337Z,15.50
2022-08-21T22:17:30.920Z,15.50
2022-08-21T22:20:00.770Z,15.50
2022-08-21T22:22:30.547Z,15.40
2022-08-21T22:25:06.978Z,15.40
2022-08-21T22:27:37.981Z,15.40
2022-08-21T22:30:09.381Z,15.40
2022-08-21T22:32:42.813Z,15.40
2022-08-21T22:35:20.603Z,15.30
2022-08-21T22:37:52.815Z,15.20
2022-08-21T22:40:26.247Z,15.20
2022-08-21T22:43:02.618Z,15.20
2022-08-21T22:45:32.364Z,15.20
2022-08-21T22:48:14.560Z,15.20
2022-08-21T22:50:57.420Z,15.20
2022-08-21T22:53:29.493Z,15.20
2022-08-21T22:56:00.622Z,15.10
2022-08-21T22:58:31.960Z,15.10
2022-08-21T23:01:05.093Z,15.10
2022-08-21T23:03:35.665Z,15.10
2022-08-21T23:06:21.677Z,15.00
2022-08-21T23:08:50.253Z,14.90
2022-08-21T23:11:23.482Z,14.90
2022-08-21T23:13:54.221Z,14.90
2022-08-21T23:16:33.800Z,14.90
2022-08-21T23:19:09.230Z,14.90
2022-08-21T23:21:46.942Z,14.90
2022-08-21T23:24:32.069Z,14.80
2022-08-21T23:27:12.477Z,14.70
2022-08-21T23:29:51.642Z,14.60
2022-08-21T23:32:52.517Z,14.60
2022-08-21T23:35:44.971Z,14.50
2022-08-21T23:38:20.998Z,14.50
2022-08-21T23:40:54.472Z,14.50
2022-08-21T23:43:41.598Z,14.50
2022-08-21T23:46:29.808Z,14.50
2022-08-21T23:49:11.067Z,14.60
2022-08-21T23:51:51.446Z,14.50
2022-08-21T23:54:24.023Z,14.40
2022-08-21T23:57:08.219Z,14.30
2022-08-21T23:59:44.488Z,14.30
